LLBG

Ben Gurion International Airport

Tel Aviv, Israel
TAF LLBG 151105Z 1512/1612 30010KT 9999 FEW030 BECMG 1516/1518 VRB03KT SCT025 TEMPO 1523/1606 16006KT BKN020 BECMG 1607/1609 27010KT FEW030 TX31/1512Z TN24/1603Z
Issued Valid From Valid To
Aug-15 @ 11:05 UTC
(2 hours ago)
Aug-15 @ 12:00 UTC
(42 minutes ago)
Aug-16 @ 12:00 UTC
(in 23 hours)
Aug-15 @ 12:00 to Aug-15 @ 16:00
TAF LLBG 151105Z 1512/1612 30010KT 9999 FEW030
Wind Visibility Clouds
300° at 10 knots 10,000+ meters
  • Few at 3,000' AGL
Becoming Aug-15 @ 16:00 to Aug-16 @ 07:00
BECMG 1516/1518 VRB03KT SCT025
Wind Visibility Clouds
Variable at 3 knots 10,000+ meters
  • Scattered at 2,500' AGL
Temporary Aug-15 @ 23:00 to Aug-16 @ 06:00
TEMPO 1523/1606 16006KT BKN020
Wind Clouds
160° at 6 knots
  • Broken at 2,000' AGL
Becoming Aug-16 @ 07:00 to Aug-16 @ 12:00
BECMG 1607/1609 27010KT FEW030 TX31/1512Z TN24/1603Z
Wind Visibility Clouds
270° at 10 knots 10,000+ meters
  • Few at 3,000' AGL
TAF LLBG 151105Z 1512/1612 30010KT 9999 FEW030 BECMG 1516/1518 VRB03KT SCT025 TEMPO 1523/1606 16006KT BKN020 BECMG 1607/1609 27010KT FEW030 TX31/1512Z TN24/1603Z
Issued Aug-15 @ 11:05 UTC
(2 hours ago)
Valid From Aug-15 @ 12:00 UTC
(42 minutes ago)
Valid To Aug-16 @ 12:00 UTC
(in 23 hours)
Aug-15 @ 12:00 - Aug-15 @ 16:00
Wind Visibility
300° at 10 knots 10,000+ meters
Clouds
  • Few at 3,000' AGL
Becoming Aug-15 @ 16:00 - Aug-16 @ 07:00
Wind Visibility
Variable at 3 knots 10,000+ meters
Clouds
  • Scattered at 2,500' AGL
Temporary Aug-15 @ 23:00 - Aug-16 @ 06:00
Wind
160° at 6 knots
Clouds
  • Broken at 2,000' AGL
Becoming Aug-16 @ 07:00 - Aug-16 @ 12:00
Wind Visibility
270° at 10 knots 10,000+ meters
Clouds
  • Few at 3,000' AGL